sensor_id;sensor_type;location;lat;lon;timestamp;pressure;altitude;pressure_sealevel;temperature;humidity
39999;BME280;25696;42.646;23.368;2022-08-21T00:00:18;93998.63;;;20.55;89.87
39999;BME280;25696;42.646;23.368;2022-08-21T00:02:48;93995.63;;;20.47;90.72
39999;BME280;25696;42.646;23.368;2022-08-21T00:05:14;93987.69;;;20.60;90.06
39999;BME280;25696;42.646;23.368;2022-08-21T00:07:39;93991.25;;;20.61;89.21
39999;BME280;25696;42.646;23.368;2022-08-21T00:10:05;93974.50;;;20.67;89.26
39999;BME280;25696;42.646;23.368;2022-08-21T00:12:31;93976.97;;;20.64;89.57
39999;BME280;25696;42.646;23.368;2022-08-21T00:14:56;93973.41;;;20.68;90.34
39999;BME280;25696;42.646;23.368;2022-08-21T00:17:22;93974.72;;;20.81;90.19
39999;BME280;25696;42.646;23.368;2022-08-21T00:19:47;93977.41;;;20.86;89.91
39999;BME280;25696;42.646;23.368;2022-08-21T00:22:12;93979.59;;;20.89;89.43
39999;BME280;25696;42.646;23.368;2022-08-21T00:24:38;93976.03;;;20.89;88.19
39999;BME280;25696;42.646;23.368;2022-08-21T00:27:03;93976.88;;;20.89;88.38
39999;BME280;25696;42.646;23.368;2022-08-21T00:29:28;93975.44;;;20.97;88.06
39999;BME280;25696;42.646;23.368;2022-08-21T00:31:54;93974.91;;;20.95;88.67
39999;BME280;25696;42.646;23.368;2022-08-21T00:34:19;93964.78;;;20.95;88.47
39999;BME280;25696;42.646;23.368;2022-08-21T00:36:44;93968.59;;;20.99;88.18
39999;BME280;25696;42.646;23.368;2022-08-21T00:39:10;93973.50;;;21.07;87.85
39999;BME280;25696;42.646;23.368;2022-08-21T00:41:35;93971.41;;;20.89;88.42
39999;BME280;25696;42.646;23.368;2022-08-21T00:44:02;93967.53;;;20.90;87.44
39999;BME280;25696;42.646;23.368;2022-08-21T00:46:28;93965.44;;;20.72;86.63
39999;BME280;25696;42.646;23.368;2022-08-21T00:48:54;93971.50;;;20.64;86.73
39999;BME280;25696;42.646;23.368;2022-08-21T00:51:21;93980.25;;;20.66;87.23
39999;BME280;25696;42.646;23.368;2022-08-21T00:53:53;93985.19;;;20.69;88.00
39999;BME280;25696;42.646;23.368;2022-08-21T00:56:19;93980.78;;;20.68;88.80
39999;BME280;25696;42.646;23.368;2022-08-21T00:58:48;93972.56;;;20.73;88.90
39999;BME280;25696;42.646;23.368;2022-08-21T01:01:19;93965.69;;;20.75;87.96
39999;BME280;25696;42.646;23.368;2022-08-21T01:03:45;93966.81;;;20.69;88.24
39999;BME280;25696;42.646;23.368;2022-08-21T01:06:11;93963.06;;;20.60;89.36
39999;BME280;25696;42.646;23.368;2022-08-21T01:08:36;93955.44;;;20.47;91.12
39999;BME280;25696;42.646;23.368;2022-08-21T01:11:02;93951.91;;;20.42;90.80
39999;BME280;25696;42.646;23.368;2022-08-21T01:13:29;93955.19;;;20.44;90.07
39999;BME280;25696;42.646;23.368;2022-08-21T01:15:55;93951.63;;;20.43;90.32
39999;BME280;25696;42.646;23.368;2022-08-21T01:18:22;93961.25;;;20.36;90.16
39999;BME280;25696;42.646;23.368;2022-08-21T01:21:30;93954.59;;;20.52;90.01
39999;BME280;25696;42.646;23.368;2022-08-21T01:23:37;93954.97;;;20.15;90.05
39999;BME280;25696;42.646;23.368;2022-08-21T01:26:03;93950.59;;;20.14;89.97
39999;BME280;25696;42.646;23.368;2022-08-21T01:28:30;93953.09;;;20.00;91.15
39999;BME280;25696;42.646;23.368;2022-08-21T01:30:58;93943.81;;;19.91;92.12
39999;BME280;25696;42.646;23.368;2022-08-21T01:33:26;93948.22;;;19.72;94.45
39999;BME280;25696;42.646;23.368;2022-08-21T01:35:51;93947.69;;;19.60;94.51
39999;BME280;25696;42.646;23.368;2022-08-21T01:38:20;93955.63;;;19.52;96.42
39999;BME280;25696;42.646;23.368;2022-08-21T01:40:45;93955.59;;;19.72;96.04
39999;BME280;25696;42.646;23.368;2022-08-21T01:43:11;93949.84;;;19.93;94.75
39999;BME280;25696;42.646;23.368;2022-08-21T01:45:36;93950.63;;;20.04;94.52
39999;BME280;25696;42.646;23.368;2022-08-21T01:48:01;93951.44;;;20.20;94.07
39999;BME280;25696;42.646;23.368;2022-08-21T01:50:27;93949.78;;;20.29;91.84
39999;BME280;25696;42.646;23.368;2022-08-21T01:52:52;93952.47;;;20.39;91.01
39999;BME280;25696;42.646;23.368;2022-08-21T01:55:22;93952.50;;;20.24;91.62
39999;BME280;25696;42.646;23.368;2022-08-21T01:57:48;93954.97;;;20.05;91.95
39999;BME280;25696;42.646;23.368;2022-08-21T02:00:15;93965.16;;;19.79;93.73
39999;BME280;25696;42.646;23.368;2022-08-21T02:02:41;93967.88;;;19.84;94.38
39999;BME280;25696;42.646;23.368;2022-08-21T02:05:07;93961.28;;;20.05;94.27
39999;BME280;25696;42.646;23.368;2022-08-21T02:07:40;93956.88;;;20.20;94.31
39999;BME280;25696;42.646;23.368;2022-08-21T02:10:06;93967.50;;;20.36;92.55
39999;BME280;25696;42.646;23.368;2022-08-21T02:12:32;93956.28;;;20.43;92.70
39999;BME280;25696;42.646;23.368;2022-08-21T02:14:57;93961.97;;;20.56;91.94
39999;BME280;25696;42.646;23.368;2022-08-21T02:17:23;93974.63;;;20.37;91.27
39999;BME280;25696;42.646;23.368;2022-08-21T02:19:48;93976.56;;;20.32;91.50
39999;BME280;25696;42.646;23.368;2022-08-21T02:22:13;93977.69;;;20.05;92.12
39999;BME280;25696;42.646;23.368;2022-08-21T02:24:39;93973.81;;;20.37;91.42
39999;BME280;25696;42.646;23.368;2022-08-21T02:27:04;93974.34;;;20.44;91.21
39999;BME280;25696;42.646;23.368;2022-08-21T02:29:29;93981.78;;;19.93;93.46
39999;BME280;25696;42.646;23.368;2022-08-21T02:31:55;93986.44;;;19.92;93.96
39999;BME280;25696;42.646;23.368;2022-08-21T02:34:20;93977.09;;;20.29;92.76
39999;BME280;25696;42.646;23.368;2022-08-21T02:36:46;93977.31;;;20.47;91.83
39999;BME280;25696;42.646;23.368;2022-08-21T02:39:11;93982.88;;;20.22;91.77
39999;BME280;25696;42.646;23.368;2022-08-21T02:41:36;93985.09;;;19.70;95.15
39999;BME280;25696;42.646;23.368;2022-08-21T02:44:02;93982.09;;;19.76;95.14
39999;BME280;25696;42.646;23.368;2022-08-21T02:46:27;93973.56;;;20.03;92.48
39999;BME280;25696;42.646;23.368;2022-08-21T02:48:53;93977.09;;;20.29;90.96
39999;BME280;25696;42.646;23.368;2022-08-21T02:51:18;93977.66;;;20.16;91.44
39999;BME280;25696;42.646;23.368;2022-08-21T02:53:45;93982.06;;;20.01;92.39
39999;BME280;25696;42.646;23.368;2022-08-21T02:56:12;93991.59;;;20.09;92.63
39999;BME280;25696;42.646;23.368;2022-08-21T02:58:39;93985.59;;;20.07;92.74
39999;BME280;25696;42.646;23.368;2022-08-21T03:01:05;93991.38;;;19.70;93.92
39999;BME280;25696;42.646;23.368;2022-08-21T03:03:34;93986.47;;;19.52;94.60
39999;BME280;25696;42.646;23.368;2022-08-21T03:06:00;93991.94;;;19.42;95.88
39999;BME280;25696;42.646;23.368;2022-08-21T03:08:25;93994.41;;;19.59;95.19
39999;BME280;25696;42.646;23.368;2022-08-21T03:10:51;93986.97;;;19.94;94.65
39999;BME280;25696;42.646;23.368;2022-08-21T03:13:17;93977.41;;;20.07;93.36
39999;BME280;25696;42.646;23.368;2022-08-21T03:15:43;93978.19;;;20.18;90.93
39999;BME280;25696;42.646;23.368;2022-08-21T03:18:09;93975.50;;;20.13;90.57
39999;BME280;25696;42.646;23.368;2022-08-21T03:20:35;93978.81;;;19.79;90.86
39999;BME280;25696;42.646;23.368;2022-08-21T03:23:01;93972.50;;;19.89;90.59
39999;BME280;25696;42.646;23.368;2022-08-21T03:25:28;93973.59;;;20.23;89.53
39999;BME280;25696;42.646;23.368;2022-08-21T03:27:54;93989.13;;;20.33;89.18
39999;BME280;25696;42.646;23.368;2022-08-21T03:30:20;93982.00;;;20.42;88.18
39999;BME280;25696;42.646;23.368;2022-08-21T03:32:46;93980.13;;;20.17;88.00
39999;BME280;25696;42.646;23.368;2022-08-21T03:35:11;93976.78;;;20.45;87.85
39999;BME280;25696;42.646;23.368;2022-08-21T03:37:37;93978.41;;;20.56;87.75
39999;BME280;25696;42.646;23.368;2022-08-21T03:40:04;93971.75;;;20.72;87.17
39999;BME280;25696;42.646;23.368;2022-08-21T03:42:29;93976.78;;;20.45;86.68
39999;BME280;25696;42.646;23.368;2022-08-21T03:44:55;93981.00;;;19.77;89.65
39999;BME280;25696;42.646;23.368;2022-08-21T03:47:20;93971.66;;;19.08;92.51
39999;BME280;25696;42.646;23.368;2022-08-21T03:49:47;93975.47;;;19.02;93.43
39999;BME280;25696;42.646;23.368;2022-08-21T03:52:12;93983.63;;;18.82;95.14
39999;BME280;25696;42.646;23.368;2022-08-21T03:54:37;93982.19;;;18.64;97.69
39999;BME280;25696;42.646;23.368;2022-08-21T03:57:07;93983.22;;;18.48;99.88
39999;BME280;25696;42.646;23.368;2022-08-21T03:59:32;93987.75;;;18.32;100.00
39999;BME280;25696;42.646;23.368;2022-08-21T04:01:59;93996.50;;;18.39;100.00
39999;BME280;25696;42.646;23.368;2022-08-21T04:04:25;93995.22;;;18.52;100.00
39999;BME280;25696;42.646;23.368;2022-08-21T04:06:51;93999.31;;;18.50;100.00
39999;BME280;25696;42.646;23.368;2022-08-21T04:09:17;94006.19;;;18.62;100.00
39999;BME280;25696;42.646;23.368;2022-08-21T04:11:42;94003.66;;;18.45;100.00
39999;BME280;25696;42.646;23.368;2022-08-21T04:14:07;93999.88;;;18.57;100.00
39999;BME280;25696;42.646;23.368;2022-08-21T04:16:33;93997.22;;;18.77;100.00
39999;BME280;25696;42.646;23.368;2022-08-21T04:18:58;93989.81;;;18.62;100.00
39999;BME280;25696;42.646;23.368;2022-08-21T04:21:24;93993.94;;;18.75;100.00
39999;BME280;25696;42.646;23.368;2022-08-21T04:23:49;93998.91;;;18.88;99.99
39999;BME280;25696;42.646;23.368;2022-08-21T04:26:15;93992.84;;;18.71;100.00
39999;BME280;25696;42.646;23.368;2022-08-21T04:28:40;93998.88;;;18.83;99.53
39999;BME280;25696;42.646;23.368;2022-08-21T04:31:06;93990.09;;;18.61;100.00
39999;BME280;25696;42.646;23.368;2022-08-21T04:33:31;93995.16;;;18.42;100.00
39999;BME280;25696;42.646;23.368;2022-08-21T04:35:57;93995.03;;;18.69;100.00
39999;BME280;25696;42.646;23.368;2022-08-21T04:38:22;93986.78;;;18.54;100.00
39999;BME280;25696;42.646;23.368;2022-08-21T04:40:48;93985.72;;;18.55;100.00
39999;BME280;25696;42.646;23.368;2022-08-21T04:43:14;93986.31;;;18.77;100.00
39999;BME280;25696;42.646;23.368;2022-08-21T04:45:43;93993.41;;;18.68;99.49
39999;BME280;25696;42.646;23.368;2022-08-21T04:48:10;93988.25;;;18.81;99.76
39999;BME280;25696;42.646;23.368;2022-08-21T04:53:07;93986.41;;;19.17;96.81
39999;BME280;25696;42.646;23.368;2022-08-21T04:55:34;93984.31;;;19.69;93.85
39999;BME280;25696;42.646;23.368;2022-08-21T04:57:59;93984.56;;;19.83;90.49
39999;BME280;25696;42.646;23.368;2022-08-21T05:00:25;93980.69;;;19.28;92.37
39999;BME280;25696;42.646;23.368;2022-08-21T05:02:51;93984.00;;;19.46;92.60
39999;BME280;25696;42.646;23.368;2022-08-21T05:05:19;93981.00;;;19.82;89.49
39999;BME280;25696;42.646;23.368;2022-08-21T05:07:44;93974.00;;;20.55;86.45
39999;BME280;25696;42.646;23.368;2022-08-21T05:10:10;93980.63;;;21.08;82.73
39999;BME280;25696;42.646;23.368;2022-08-21T05:12:35;93986.56;;;21.59;79.98
39999;BME280;25696;42.646;23.368;2022-08-21T05:15:01;93981.63;;;22.23;76.00
39999;BME280;25696;42.646;23.368;2022-08-21T05:17:26;93984.38;;;22.23;76.23
39999;BME280;25696;42.646;23.368;2022-08-21T05:19:52;93976.63;;;23.01;72.72
39999;BME280;25696;42.646;23.368;2022-08-21T05:22:23;93979.19;;;23.72;70.62
39999;BME280;25696;42.646;23.368;2022-08-21T05:24:49;93981.25;;;24.58;67.72
39999;BME280;25696;42.646;23.368;2022-08-21T05:27:15;93988.56;;;23.53;68.71
39999;BME280;25696;42.646;23.368;2022-08-21T05:29:40;93996.94;;;23.00;71.65
39999;BME280;25696;42.646;23.368;2022-08-21T05:32:09;93990.06;;;22.79;72.33
39999;BME280;25696;42.646;23.368;2022-08-21T05:34:35;93983.66;;;22.42;74.03
39999;BME280;25696;42.646;23.368;2022-08-21T05:37:00;93984.56;;;22.32;75.22
39999;BME280;25696;42.646;23.368;2022-08-21T05:39:25;93984.13;;;22.72;75.23
39999;BME280;25696;42.646;23.368;2022-08-21T05:41:51;93979.63;;;24.57;69.53
39999;BME280;25696;42.646;23.368;2022-08-21T05:44:16;93967.63;;;26.01;62.93
39999;BME280;25696;42.646;23.368;2022-08-21T05:46:41;93972.38;;;27.24;59.43
39999;BME280;25696;42.646;23.368;2022-08-21T05:49:06;93973.41;;;28.22;54.50
39999;BME280;25696;42.646;23.368;2022-08-21T05:51:32;93965.00;;;29.49;51.80
39999;BME280;25696;42.646;23.368;2022-08-21T05:53:57;93968.63;;;30.11;49.07
39999;BME280;25696;42.646;23.368;2022-08-21T05:56:22;93959.22;;;30.57;46.05
39999;BME280;25696;42.646;23.368;2022-08-21T05:58:48;93960.66;;;29.89;47.54
39999;BME280;25696;42.646;23.368;2022-08-21T06:01:13;93968.66;;;28.48;54.58
39999;BME280;25696;42.646;23.368;2022-08-21T06:03:40;93968.09;;;27.09;58.96
39999;BME280;25696;42.646;23.368;2022-08-21T06:06:06;93978.78;;;26.32;61.74
39999;BME280;25696;42.646;23.368;2022-08-21T06:08:31;93973.81;;;25.98;63.94
39999;BME280;25696;42.646;23.368;2022-08-21T06:10:58;93971.66;;;25.95;63.08
39999;BME280;25696;42.646;23.368;2022-08-21T06:13:24;93974.19;;;26.89;59.21
39999;BME280;25696;42.646;23.368;2022-08-21T06:15:50;93973.59;;;28.17;55.86
39999;BME280;25696;42.646;23.368;2022-08-21T06:18:24;93966.03;;;29.06;52.15
39999;BME280;25696;42.646;23.368;2022-08-21T06:20:50;93967.66;;;29.66;51.48
39999;BME280;25696;42.646;23.368;2022-08-21T06:23:15;93967.75;;;30.19;50.16
39999;BME280;25696;42.646;23.368;2022-08-21T06:25:41;93968.19;;;30.74;49.02
39999;BME280;25696;42.646;23.368;2022-08-21T06:28:07;93965.59;;;31.87;45.89
39999;BME280;25696;42.646;23.368;2022-08-21T06:30:33;93970.13;;;31.91;44.35
39999;BME280;25696;42.646;23.368;2022-08-21T06:32:58;93972.06;;;31.06;46.81
39999;BME280;25696;42.646;23.368;2022-08-21T06:35:24;93966.38;;;30.46;47.46
39999;BME280;25696;42.646;23.368;2022-08-21T06:37:50;93973.94;;;29.54;50.47
39999;BME280;25696;42.646;23.368;2022-08-21T06:40:16;93970.66;;;28.94;52.50
39999;BME280;25696;42.646;23.368;2022-08-21T06:42:41;93968.53;;;28.36;53.27
39999;BME280;25696;42.646;23.368;2022-08-21T06:45:06;93974.41;;;27.83;55.73
39999;BME280;25696;42.646;23.368;2022-08-21T06:47:32;93976.53;;;27.04;57.36
39999;BME280;25696;42.646;23.368;2022-08-21T06:49:57;93981.47;;;26.85;57.60
39999;BME280;25696;42.646;23.368;2022-08-21T06:52:23;93971.97;;;26.38;59.33
39999;BME280;25696;42.646;23.368;2022-08-21T06:54:48;93981.31;;;26.51;59.69
39999;BME280;25696;42.646;23.368;2022-08-21T06:57:13;93981.66;;;26.58;58.17
39999;BME280;25696;42.646;23.368;2022-08-21T06:59:38;93990.59;;;26.85;57.76
39999;BME280;25696;42.646;23.368;2022-08-21T07:02:04;93997.06;;;26.81;58.37
39999;BME280;25696;42.646;23.368;2022-08-21T07:04:29;93988.19;;;27.01;58.43
39999;BME280;25696;42.646;23.368;2022-08-21T07:06:55;93982.19;;;26.90;59.30
39999;BME280;25696;42.646;23.368;2022-08-21T07:09:20;93979.50;;;26.77;59.08
39999;BME280;25696;42.646;23.368;2022-08-21T07:11:46;93972.69;;;26.83;58.63
39999;BME280;25696;42.646;23.368;2022-08-21T07:14:14;93985.88;;;26.86;59.00
39999;BME280;25696;42.646;23.368;2022-08-21T07:16:40;93986.72;;;26.95;59.25
39999;BME280;25696;42.646;23.368;2022-08-21T07:19:05;93989.81;;;26.93;58.55
39999;BME280;25696;42.646;23.368;2022-08-21T07:21:30;93984.25;;;26.85;59.57
39999;BME280;25696;42.646;23.368;2022-08-21T07:23:55;93980.41;;;27.03;59.38
39999;BME280;25696;42.646;23.368;2022-08-21T07:26:21;93985.38;;;27.23;58.45
39999;BME280;25696;42.646;23.368;2022-08-21T07:28:48;93974.78;;;27.25;58.07
39999;BME280;25696;42.646;23.368;2022-08-21T07:31:14;93973.31;;;27.19;58.20
39999;BME280;25696;42.646;23.368;2022-08-21T07:33:40;93971.34;;;27.20;58.65
39999;BME280;25696;42.646;23.368;2022-08-21T07:36:06;93969.91;;;27.31;57.40
39999;BME280;25696;42.646;23.368;2022-08-21T07:38:31;93965.16;;;27.14;58.10
39999;BME280;25696;42.646;23.368;2022-08-21T07:40:57;93961.16;;;26.81;57.17
39999;BME280;25696;42.646;23.368;2022-08-21T07:43:24;93962.50;;;26.92;57.68
39999;BME280;25696;42.646;23.368;2022-08-21T07:45:50;93962.31;;;26.80;57.47
39999;BME280;25696;42.646;23.368;2022-08-21T07:48:15;93962.84;;;26.99;57.31
39999;BME280;25696;42.646;23.368;2022-08-21T07:50:41;93954.97;;;27.32;56.94
39999;BME280;25696;42.646;23.368;2022-08-21T07:53:07;93960.56;;;27.74;55.89
39999;BME280;25696;42.646;23.368;2022-08-21T07:55:32;93958.78;;;27.78;54.27
39999;BME280;25696;42.646;23.368;2022-08-21T07:57:58;93961.22;;;27.88;54.94
39999;BME280;25696;42.646;23.368;2022-08-21T08:00:24;93957.75;;;28.34;51.91
39999;BME280;25696;42.646;23.368;2022-08-21T08:02:51;93955.66;;;28.40;51.87
39999;BME280;25696;42.646;23.368;2022-08-21T08:05:17;93953.84;;;28.90;50.46
39999;BME280;25696;42.646;23.368;2022-08-21T08:07:42;93960.00;;;29.04;50.96
39999;BME280;25696;42.646;23.368;2022-08-21T08:10:08;93968.84;;;28.98;49.74
39999;BME280;25696;42.646;23.368;2022-08-21T08:12:34;93964.66;;;28.83;50.21
39999;BME280;25696;42.646;23.368;2022-08-21T08:15:00;93970.28;;;28.49;52.07
39999;BME280;25696;42.646;23.368;2022-08-21T08:17:26;93961.88;;;27.94;52.19
39999;BME280;25696;42.646;23.368;2022-08-21T08:19:52;93959.75;;;27.65;53.40
39999;BME280;25696;42.646;23.368;2022-08-21T08:22:18;93964.97;;;27.75;52.54
39999;BME280;25696;42.646;23.368;2022-08-21T08:24:47;93962.34;;;27.62;53.43
39999;BME280;25696;42.646;23.368;2022-08-21T08:27:13;93962.50;;;27.65;54.85
39999;BME280;25696;42.646;23.368;2022-08-21T08:29:39;93958.78;;;27.96;54.70
39999;BME280;25696;42.646;23.368;2022-08-21T08:32:04;93959.16;;;27.12;57.26
39999;BME280;25696;42.646;23.368;2022-08-21T08:34:32;93961.31;;;26.76;58.17
39999;BME280;25696;42.646;23.368;2022-08-21T08:36:57;93970.06;;;27.17;56.73
39999;BME280;25696;42.646;23.368;2022-08-21T08:39:23;93969.00;;;27.35;55.88
39999;BME280;25696;42.646;23.368;2022-08-21T08:41:49;93972.28;;;27.54;56.58
39999;BME280;25696;42.646;23.368;2022-08-21T08:44:17;93964.63;;;27.68;54.40
39999;BME280;25696;42.646;23.368;2022-08-21T08:46:44;93966.06;;;27.49;54.84
39999;BME280;25696;42.646;23.368;2022-08-21T08:51:39;93960.75;;;27.69;54.68
39999;BME280;25696;42.646;23.368;2022-08-21T08:54:09;93956.34;;;27.68;54.34
39999;BME280;25696;42.646;23.368;2022-08-21T08:56:34;93956.97;;;27.82;52.91
39999;BME280;25696;42.646;23.368;2022-08-21T08:59:02;93951.47;;;28.00;53.40
39999;BME280;25696;42.646;23.368;2022-08-21T09:01:32;93953.72;;;27.89;52.75
39999;BME280;25696;42.646;23.368;2022-08-21T09:03:58;93949.34;;;27.88;52.72
39999;BME280;25696;42.646;23.368;2022-08-21T09:09:22;93944.31;;;27.99;53.14
39999;BME280;25696;42.646;23.368;2022-08-21T09:25:24;93936.00;;;27.99;51.83
39999;BME280;25696;42.646;23.368;2022-08-21T09:27:50;93926.22;;;28.10;51.15
39999;BME280;25696;42.646;23.368;2022-08-21T09:30:16;93924.91;;;28.79;49.97
39999;BME280;25696;42.646;23.368;2022-08-21T09:32:41;93920.59;;;29.28;47.76
39999;BME280;25696;42.646;23.368;2022-08-21T09:35:12;93928.34;;;29.05;49.38
39999;BME280;25696;42.646;23.368;2022-08-21T09:40:55;93930.06;;;27.23;54.15
39999;BME280;25696;42.646;23.368;2022-08-21T09:43:22;93929.69;;;26.99;54.51
39999;BME280;25696;42.646;23.368;2022-08-21T09:46:02;93926.16;;;27.07;54.64
39999;BME280;25696;42.646;23.368;2022-08-21T09:48:27;93920.31;;;27.26;55.02
39999;BME280;25696;42.646;23.368;2022-08-21T09:51:04;93923.63;;;27.62;53.84
39999;BME280;25696;42.646;23.368;2022-08-21T09:53:30;93915.81;;;27.47;54.21
39999;BME280;25696;42.646;23.368;2022-08-21T09:55:59;93920.16;;;27.31;54.09
39999;BME280;25696;42.646;23.368;2022-08-21T09:58:46;93918.53;;;27.30;54.64
39999;BME280;25696;42.646;23.368;2022-08-21T10:01:14;93914.44;;;27.10;55.37
39999;BME280;25696;42.646;23.368;2022-08-21T10:03:40;93905.03;;;26.63;54.85
39999;BME280;25696;42.646;23.368;2022-08-21T10:06:06;93916.16;;;26.89;57.03
39999;BME280;25696;42.646;23.368;2022-08-21T10:08:34;93902.16;;;26.77;57.72
39999;BME280;25696;42.646;23.368;2022-08-21T10:11:08;93905.28;;;26.45;57.77
39999;BME280;25696;42.646;23.368;2022-08-21T10:13:53;93903.66;;;26.13;58.06
39999;BME280;25696;42.646;23.368;2022-08-21T10:39:35;93887.03;;;25.82;59.84
39999;BME280;25696;42.646;23.368;2022-08-21T10:44:32;93881.38;;;25.43;60.01
39999;BME280;25696;42.646;23.368;2022-08-21T10:47:11;93881.41;;;26.49;57.22
39999;BME280;25696;42.646;23.368;2022-08-21T10:54:50;93880.53;;;27.69;53.97
39999;BME280;25696;42.646;23.368;2022-08-21T10:57:36;93867.81;;;27.85;51.86
39999;BME280;25696;42.646;23.368;2022-08-21T11:00:08;93870.72;;;27.21;54.22
39999;BME280;25696;42.646;23.368;2022-08-21T11:02:42;93856.59;;;27.48;53.15
39999;BME280;25696;42.646;23.368;2022-08-21T11:05:14;93858.03;;;27.11;54.14
39999;BME280;25696;42.646;23.368;2022-08-21T11:07:45;93853.00;;;27.22;52.80
39999;BME280;25696;42.646;23.368;2022-08-21T11:10:26;93851.03;;;27.31;52.63
39999;BME280;25696;42.646;23.368;2022-08-21T11:13:03;93836.72;;;27.03;52.70
39999;BME280;25696;42.646;23.368;2022-08-21T11:15:37;93830.03;;;26.87;53.98
39999;BME280;25696;42.646;23.368;2022-08-21T11:18:26;93821.56;;;26.27;54.29
39999;BME280;25696;42.646;23.368;2022-08-21T11:29:04;93826.75;;;26.28;53.92
39999;BME280;25696;42.646;23.368;2022-08-21T11:34:13;93833.97;;;26.55;53.60
39999;BME280;25696;42.646;23.368;2022-08-21T11:36:51;93835.31;;;26.18;55.42
39999;BME280;25696;42.646;23.368;2022-08-21T11:39:30;93832.44;;;26.23;56.27
39999;BME280;25696;42.646;23.368;2022-08-21T11:44:27;93822.09;;;26.38;55.97
39999;BME280;25696;42.646;23.368;2022-08-21T11:54:27;93828.75;;;25.75;55.26
39999;BME280;25696;42.646;23.368;2022-08-21T11:56:59;93821.56;;;25.66;56.60
39999;BME280;25696;42.646;23.368;2022-08-21T12:02:21;93820.38;;;25.58;56.27
39999;BME280;25696;42.646;23.368;2022-08-21T12:04:52;93812.75;;;25.55;56.54
39999;BME280;25696;42.646;23.368;2022-08-21T12:07:37;93809.34;;;25.58;55.80
39999;BME280;25696;42.646;23.368;2022-08-21T12:10:06;93801.09;;;25.97;54.38
39999;BME280;25696;42.646;23.368;2022-08-21T12:12:34;93794.47;;;26.38;53.76
39999;BME280;25696;42.646;23.368;2022-08-21T12:17:35;93806.44;;;26.24;52.55
39999;BME280;25696;42.646;23.368;2022-08-21T12:20:04;93812.63;;;26.86;51.87
39999;BME280;25696;42.646;23.368;2022-08-21T12:22:39;93809.41;;;26.37;52.47
39999;BME280;25696;42.646;23.368;2022-08-21T12:25:06;93814.06;;;25.88;53.60
39999;BME280;25696;42.646;23.368;2022-08-21T12:27:48;93814.72;;;25.94;54.22
39999;BME280;25696;42.646;23.368;2022-08-21T12:33:00;93812.97;;;25.67;56.11
39999;BME280;25696;42.646;23.368;2022-08-21T12:35:27;93817.53;;;26.02;55.58
39999;BME280;25696;42.646;23.368;2022-08-21T12:38:07;93809.22;;;26.24;53.55
39999;BME280;25696;42.646;23.368;2022-08-21T12:40:39;93808.59;;;26.05;54.16
39999;BME280;25696;42.646;23.368;2022-08-21T12:43:05;93808.84;;;26.09;54.07
39999;BME280;25696;42.646;23.368;2022-08-21T12:45:40;93807.41;;;25.89;54.49
39999;BME280;25696;42.646;23.368;2022-08-21T12:48:14;93800.94;;;25.19;57.04
39999;BME280;25696;42.646;23.368;2022-08-21T12:50:50;93806.56;;;25.36;56.66
39999;BME280;25696;42.646;23.368;2022-08-21T12:55:51;93812.09;;;24.78;60.96
39999;BME280;25696;42.646;23.368;2022-08-21T12:58:17;93799.03;;;24.84;62.12
39999;BME280;25696;42.646;23.368;2022-08-21T13:00:47;93795.16;;;25.29;60.90
39999;BME280;25696;42.646;23.368;2022-08-21T13:03:13;93790.78;;;25.06;61.57
39999;BME280;25696;42.646;23.368;2022-08-21T13:05:39;93794.66;;;24.83;62.38
39999;BME280;25696;42.646;23.368;2022-08-21T13:08:06;93787.66;;;24.99;62.31
39999;BME280;25696;42.646;23.368;2022-08-21T13:10:33;93783.00;;;25.08;61.84
39999;BME280;25696;42.646;23.368;2022-08-21T13:13:01;93791.78;;;25.32;61.20
39999;BME280;25696;42.646;23.368;2022-08-21T13:15:29;93799.50;;;25.21;61.87
39999;BME280;25696;42.646;23.368;2022-08-21T13:17:55;93786.66;;;25.17;61.82
39999;BME280;25696;42.646;23.368;2022-08-21T13:20:28;93785.47;;;25.09;62.13
39999;BME280;25696;42.646;23.368;2022-08-21T13:22:54;93774.53;;;25.18;62.62
39999;BME280;25696;42.646;23.368;2022-08-21T13:25:20;93783.25;;;24.98;62.92
39999;BME280;25696;42.646;23.368;2022-08-21T13:27:57;93788.81;;;24.70;63.73
39999;BME280;25696;42.646;23.368;2022-08-21T13:30:23;93774.34;;;24.79;64.76
39999;BME280;25696;42.646;23.368;2022-08-21T13:32:51;93769.31;;;24.45;65.98
39999;BME280;25696;42.646;23.368;2022-08-21T13:35:21;93759.28;;;24.13;67.54
39999;BME280;25696;42.646;23.368;2022-08-21T13:37:48;93749.78;;;23.92;69.35
39999;BME280;25696;42.646;23.368;2022-08-21T13:40:19;93763.13;;;24.12;69.07
39999;BME280;25696;42.646;23.368;2022-08-21T13:42:47;93765.47;;;23.78;71.01
39999;BME280;25696;42.646;23.368;2022-08-21T13:45:18;93768.94;;;23.97;70.22
39999;BME280;25696;42.646;23.368;2022-08-21T13:47:44;93771.19;;;23.95;71.52
39999;BME280;25696;42.646;23.368;2022-08-21T13:50:11;93773.00;;;23.86;72.61
39999;BME280;25696;42.646;23.368;2022-08-21T13:52:44;93774.53;;;23.92;72.72
39999;BME280;25696;42.646;23.368;2022-08-21T13:55:12;93772.22;;;24.13;71.76
39999;BME280;25696;42.646;23.368;2022-08-21T13:57:37;93769.97;;;24.28;70.65
39999;BME280;25696;42.646;23.368;2022-08-21T14:00:17;93774.25;;;24.34;70.22
39999;BME280;25696;42.646;23.368;2022-08-21T14:02:44;93763.00;;;24.44;70.42
39999;BME280;25696;42.646;23.368;2022-08-21T14:05:26;93761.66;;;24.55;69.15
39999;BME280;25696;42.646;23.368;2022-08-21T14:08:00;93762.91;;;24.36;70.00
39999;BME280;25696;42.646;23.368;2022-08-21T14:10:27;93757.44;;;24.22;70.24
39999;BME280;25696;42.646;23.368;2022-08-21T14:15:28;93762.59;;;24.51;69.75
39999;BME280;25696;42.646;23.368;2022-08-21T14:17:54;93757.56;;;24.04;71.81
39999;BME280;25696;42.646;23.368;2022-08-21T14:20:32;93757.81;;;23.75;72.90